Decoded Metar for OBBI (BAHRAIN in BAHRAIN) (IATA:BAH) | Meteo·Mobile Aviation Weather
aviador You're here:

OBBI Decoded Metar

BAHRAIN in BAHRAIN
Report Time2018-08-21 12:00:00
UTC Time2018-08-21 12:12:22
Flight Rules vfr VFR
Wind360° at 10 kt
W.Decomp.*RWY 30: 5.3 kt HW 8.5 kt RCW
Visibility9999 m
Phenomena:N/A
Clouds:N/A
Expected CloudBase > 4,400 ft AGL from Temp-Dew spread
CeilingNone
Temp37°C (ISA +22)
Dew Point26°C (53% RH)
Heat Index47.4°C
QNH0998 hPa
Density Alt3,438 ft
Elevation7 ft
Report Wrong Elevation
Raw Report
OBBI 211200Z 36010KT CAVOK 37/26 Q0998 NOSIG=

Extra information for OBBI:More info

Metar Taf Metar & Taf Last 4 Metars F.Rules Stats Wind Profile Meteogram Temp Stats Airport Information Weather charts Add Link Nearby VenuesMetar ALERT Operation Metar Decoded Social comments